Viborg, SD (57070)

1:14 PM CDT on June 03, 2015 (GMT -0500)
Turkey Ridge | | Change Station
CLOSE
Current Station
Personal Weather Station
Location: Freeman, SD
Elevation: 1644 ft
Nearby Weather Stations

Elev 1644 ft 43.26 °N, 97.36 °W | Updated 4 minutes ago

Partly Cloudy
Partly Cloudy
75.9 °F
Feels Like 77 °F
N
3.0
Wind Variable Wind from North
Gusts 3.0 mph

Today
High -- | Low -- °F
--% Chance of Precip.
Yesterday
High -- | Low -- °F
Precip. -- in
5:50 AM 9:02 PM
Full, 99% visible
Pressure 29.88 in
Visibility 10.0 miles
Clouds Few 3400 ft
Scattered Clouds 6500 ft
Heat Index 77 °F
Dew Point 67 °F
Humidity 73%
Rainfall 0.33 in
Snow Depth Not available.
UV 9 out of 12
Pollen 4.20 out of 12
Air Quality Not available.
Flu Activity Sporadic
METAR KYKN 031755Z AUTO 33005KT 10SM FEW034 SCT065 24/17 A2988 RMK AO1 10240 20170 52014

More Conditions Fewer Conditions

Pressure 29.88 in
Visibility 10.0 miles
Clouds Few 3400 ft
Scattered Clouds 6500 ft
Heat Index 77 °F
Dew Point 67 °F
Humidity 73%
Rainfall 0.33 in
Snow Depth Not available.
UV 9 out of 12
Pollen 4.20 out of 12
Air Quality Not available.
Flu Activity Sporadic
METAR KYKN 031755Z AUTO 33005KT 10SM FEW034 SCT065 24/17 A2988 RMK AO1 10240 20170 52014

More Conditions Fewer Conditions

10-Day Weather Forecast

×

Almanac

Astronomy

Jun. 03, 2015 Rise Set
Actual Time
Civil Twilight
Nautical Twilight
Astronomical Twilight
Moon
Length of Visible Light
Length of Day
Tomorrow will be .
, % of the Moon is Illuminated

Today's Extremes

State Highs State Lows

Community

WunderPhotos

Upload Photos

1,826,268 photos uploaded!

WunderBlogs® & News

Nearby

Air Quality

  Air Quality AQ Index Pollutant
Not available.

Snow Depth

Station Depth Elevation

Earthquake Activity

City Distance Mag. Time & Date
Minimum magnitude displayed is 2.5.

Coastal Water Temperatures

Place Temperature

Stations

Nearby Weather Stations

Station Location Temp. Windchill Dew Point Humidity Wind Precip. Elev Updated Type